Time;durP1;ratioP1;P1;durP2;ratioP2;P2;SDS_P1;SDS_P2;PMS_P1;PMS_P2;Temp;Humidity;BMP_temperature;BMP_pressure;BME280_temperature;BME280_humidity;BME280_pressure;Samples;Min_cycle;Max_cycle;Signal;HPM_P1;HPM_P2
2022/07/14 04:20:05;;;;;;;6.00;3.13;;;;;;;19.43;56.76;100573.22;5597861;31;115441;-86
2022/07/14 04:23:10;;;;;;;7.82;2.87;;;;;;;19.53;56.36;100582.22;5584073;31;33918;-88
2022/07/14 04:26:13;;;;;;;3.47;2.50;;;;;;;19.66;56.13;100574.81;5584284;31;33870;-87
2022/07/14 04:29:17;;;;;;;3.67;2.47;;;;;;;19.73;57.01;100577.84;5584228;32;34137;-86
2022/07/14 04:32:20;;;;;;;4.05;2.87;;;;;;;19.86;56.98;100577.62;5584544;31;33822;-87
2022/07/14 04:35:23;;;;;;;5.57;2.90;;;;;;;19.96;57.36;100563.44;5585100;31;34274;-87
2022/07/14 04:38:29;;;;;;;5.75;3.60;;;;;;;20.06;57.46;100569.69;5585330;31;33900;-88
2022/07/14 04:41:36;;;;;;;6.75;3.33;;;;;;;20.26;57.21;100565.25;5586266;32;34238;-90
2022/07/14 04:44:41;;;;;;;6.07;2.80;;;;;;;20.35;57.22;100560.91;5586163;31;33603;-88
2022/07/14 04:47:44;;;;;;;6.40;2.80;;;;;;;20.40;55.39;100564.03;5585699;32;33967;-88
2022/07/14 04:54:10;;;;;;;7.15;2.90;;;;;;;20.87;56.05;100563.50;5569192;32;32711;-87
2022/07/14 04:57:14;;;;;;;4.95;3.05;;;;;;;21.38;53.85;100565.22;5583232;32;34734;-88
2022/07/14 05:00:17;;;;;;;4.10;2.70;;;;;;;21.89;52.03;100570.44;5583940;32;34162;-88
2022/07/14 05:03:20;;;;;;;4.47;2.53;;;;;;;22.43;50.93;100573.38;5583183;31;34138;-88
2022/07/14 05:06:23;;;;;;;6.60;2.60;;;;;;;22.67;49.56;100571.16;5571149;32;33234;-88
2022/07/14 05:09:30;;;;;;;5.95;2.67;;;;;;;22.95;48.90;100560.31;5568193;32;33335;-87
2022/07/14 05:12:33;;;;;;;12.37;3.30;;;;;;;23.14;48.39;100565.56;5582269;32;34532;-88
2022/07/14 05:15:36;;;;;;;8.35;3.30;;;;;;;23.28;48.80;100576.88;5582743;31;33849;-88
2022/07/14 05:18:39;;;;;;;7.47;2.65;;;;;;;23.53;46.60;100583.38;5582480;32;35242;-88
2022/07/14 05:21:43;;;;;;;3.75;2.70;;;;;;;24.02;45.60;100581.16;5569347;32;32339;-86
2022/07/14 05:24:46;;;;;;;6.28;2.50;;;;;;;24.07;45.05;100578.84;5595172;31;33579;-86
2022/07/14 05:27:48;;;;;;;6.30;2.67;;;;;;;23.94;46.07;100577.41;5591761;31;34952;-84
2022/07/14 05:31:00;;;;;;;3.47;2.40;;;;;;;24.19;45.12;100569.44;5559810;32;34569;-86
2022/07/14 05:34:06;;;;;;;5.95;2.80;;;;;;;26.90;38.57;100569.75;5568886;32;33649;-86
2022/07/14 05:37:09;;;;;;;4.43;2.05;;;;;;;30.69;32.28;100569.59;5568949;32;35127;-86
2022/07/14 05:40:12;;;;;;;8.60;2.10;;;;;;;34.91;25.11;100569.75;5569574;32;33978;-87
2022/07/14 05:43:15;;;;;;;5.47;2.00;;;;;;;35.54;24.73;100569.44;5571198;32;35150;-87
2022/07/14 05:46:20;;;;;;;2.87;2.00;;;;;;;38.81;21.18;100567.66;5570276;32;33801;-87
2022/07/14 05:49:24;;;;;;;2.25;1.65;;;;;;;40.07;19.66;100559.22;5570097;32;33905;-87
2022/07/14 05:52:30;;;;;;;5.03;1.90;;;;;;;40.67;18.59;100567.19;5569102;32;34330;-87
2022/07/14 05:55:33;;;;;;;4.78;1.67;;;;;;;40.77;18.39;100562.78;5555677;32;32337;-87
2022/07/14 05:58:38;;;;;;;3.90;1.65;;;;;;;39.86;19.08;100556.28;5569725;32;34477;-87
2022/07/14 06:01:41;;;;;;;4.25;1.60;;;;;;;39.20;19.73;100561.09;5570151;32;34017;-88
2022/07/14 06:04:45;;;;;;;5.07;1.77;;;;;;;40.22;18.99;100549.28;5554910;32;32588;-88
2022/07/14 06:07:48;;;;;;;4.22;2.30;;;;;;;41.80;18.08;100544.38;5569359;32;33688;-88
2022/07/14 06:10:55;;;;;;;7.50;1.98;;;;;;;42.77;17.44;100547.03;5570255;32;34511;-88
2022/07/14 06:13:58;;;;;;;4.43;1.87;;;;;;;43.87;16.55;100547.69;5572690;32;34955;-88
2022/07/14 06:17:01;;;;;;;8.90;1.55;;;;;;;43.93;15.64;100540.09;5574204;32;34084;-87
2022/07/14 06:20:07;;;;;;;3.05;1.77;;;;;;;43.25;15.60;100545.50;5570194;32;34459;-90
2022/07/14 06:23:10;;;;;;;3.70;1.48;;;;;;;43.56;16.15;100542.44;5571203;32;34232;-91
2022/07/14 06:26:13;;;;;;;2.00;1.80;;;;;;;43.58;15.63;100538.22;5570819;32;34187;-92
2022/07/14 06:29:16;;;;;;;3.08;1.80;;;;;;;43.00;15.98;100537.09;5570235;32;34333;-88
2022/07/14 06:32:20;;;;;;;6.55;1.60;;;;;;;44.55;14.41;100542.06;5556499;32;34782;-87
2022/07/14 06:35:24;;;;;;;3.33;1.50;;;;;;;44.13;14.50;100541.81;5572348;32;33561;-87
2022/07/14 06:38:27;;;;;;;3.85;1.45;;;;;;;44.60;14.13;100541.16;5570786;32;34824;-87
2022/07/14 06:41:30;;;;;;;3.17;1.60;;;;;;;43.16;14.85;100534.16;5568417;32;33889;-87
2022/07/14 06:44:33;;;;;;;5.15;1.65;;;;;;;42.05;16.70;100526.75;5569520;32;34275;-86
2022/07/14 06:47:40;;;;;;;4.53;1.80;;;;;;;38.72;18.83;100522.13;5570595;32;34519;-86
2022/07/14 06:50:43;;;;;;;4.43;1.40;;;;;;;35.99;22.07;100526.62;5571310;32;34567;-85
2022/07/14 06:53:46;;;;;;;4.70;1.50;;;;;;;34.19;23.73;100522.59;5570024;32;33802;-86
2022/07/14 06:56:49;;;;;;;3.40;1.55;;;;;;;34.62;23.58;100525.44;5570367;32;33823;-86
2022/07/14 06:59:53;;;;;;;7.12;1.40;;;;;;;33.18;25.80;100516.16;5570845;32;33783;-85
2022/07/14 07:02:56;;;;;;;5.68;1.40;;;;;;;34.98;23.17;100520.06;5555340;32;33765;-85
2022/07/14 07:09:21;;;;;;;3.60;1.40;;;;;;;34.11;24.51;100517.41;5570466;32;35292;-84
2022/07/14 07:12:24;;;;;;;3.85;1.37;;;;;;;35.20;22.64;100521.19;5570048;32;33887;-85
2022/07/14 07:15:26;;;;;;;1.30;1.20;;;;;;;34.14;23.49;100514.22;5570125;32;33427;-85
2022/07/14 07:18:29;;;;;;;2.65;1.35;;;;;;;33.51;24.04;100516.09;5570317;32;33910;-86
2022/07/14 07:21:32;;;;;;;3.37;1.58;;;;;;;32.99;26.14;100525.41;5570876;32;33851;-87
2022/07/14 07:24:35;;;;;;;5.70;1.80;;;;;;;32.48;27.41;100508.78;5569553;32;33916;-86
2022/07/14 07:27:38;;;;;;;13.13;2.10;;;;;;;31.53;27.67;100519.16;5569438;32;34249;-88
2022/07/14 07:30:41;;;;;;;4.85;1.55;;;;;;;31.91;27.79;100515.72;5570016;32;34476;-87
2022/07/14 07:33:45;;;;;;;3.72;1.80;;;;;;;31.46;27.54;100520.00;5570341;32;33831;-87
2022/07/14 07:36:49;;;;;;;4.20;1.50;;;;;;;30.54;29.66;100512.25;5555289;32;32967;-88
2022/07/14 07:40:12;;;;;;;2.65;1.50;;;;;;;30.42;29.69;100513.88;5556415;32;32685;-87
2022/07/14 07:43:15;;;;;;;2.45;1.80;;;;;;;30.45;29.47;100517.06;5570343;32;33713;-87
2022/07/14 07:46:18;;;;;;;4.22;1.67;;;;;;;31.36;28.72;100516.81;5570629;32;34093;-87
2022/07/14 07:49:21;;;;;;;4.43;1.40;;;;;;;32.50;27.61;100518.50;5572732;32;34249;-87
2022/07/14 07:52:24;;;;;;;3.15;1.40;;;;;;;33.33;25.58;100507.56;5573984;32;34280;-87
2022/07/14 07:55:28;;;;;;;3.67;1.27;;;;;;;33.39;25.74;100505.84;5578454;32;33900;-87
2022/07/14 07:58:31;;;;;;;4.37;2.85;;;;;;;33.99;25.31;100509.06;5575239;32;32999;-87
2022/07/14 08:01:34;;;;;;;3.80;1.60;;;;;;;34.36;24.37;100505.44;5571995;32;33895;-86
2022/07/14 08:04:38;;;;;;;2.35;1.50;;;;;;;34.54;23.14;100499.91;5574426;32;34249;-87
2022/07/14 08:07:40;;;;;;;1.35;1.27;;;;;;;34.71;23.64;100502.03;5560825;32;33638;-87
2022/07/14 08:10:44;;;;;;;1.50;1.40;;;;;;;34.79;22.18;100500.88;5570577;32;35240;-90
2022/07/14 08:13:47;;;;;;;3.60;1.42;;;;;;;35.21;22.61;100503.56;5573602;32;35267;-87
2022/07/14 08:16:52;;;;;;;2.65;1.73;;;;;;;35.78;21.68;100493.03;5587992;26;35569;-91
2022/07/14 08:20:12;;;;;;;2.80;1.40;;;;;;;35.79;22.01;100500.22;5571473;26;33879;31
2022/07/14 08:23:15;;;;;;;1.95;1.35;;;;;;;36.08;21.67;100499.44;5478156;32;31915;-87
2022/07/14 08:26:18;;;;;;;2.83;1.60;;;;;;;35.46;21.12;100498.94;5491897;32;33943;-88
2022/07/14 08:29:21;;;;;;;2.28;1.48;;;;;;;36.49;20.01;100488.44;5491825;32;33860;-88
2022/07/14 08:32:39;;;;;;;2.87;1.55;;;;;;;37.27;19.70;100484.25;5478514;32;33106;-88
2022/07/14 08:35:56;;;;;;;1.23;1.12;;;;;;;37.82;19.55;100487.25;5541486;26;34485;-87
2022/07/14 08:39:01;;;;;;;3.53;1.30;;;;;;;38.01;18.47;100479.47;5540115;26;33733;-87
2022/07/14 08:42:04;;;;;;;1.35;1.25;;;;;;;38.45;18.25;100484.13;5510837;32;34118;-87
2022/07/14 08:45:09;;;;;;;6.28;1.20;;;;;;;37.95;18.64;100474.97;5512700;32;34009;-88
2022/07/14 08:48:14;;;;;;;14.10;2.00;;;;;;;38.46;18.38;100474.72;5498578;32;34412;-87
2022/07/14 08:51:17;;;;;;;5.22;1.40;;;;;;;39.21;17.70;100482.34;5525821;26;34108;-87
2022/07/14 08:54:22;;;;;;;1.50;1.10;;;;;;;39.38;17.02;100481.34;5496983;32;34486;-88
2022/07/14 08:57:25;;;;;;;1.40;1.30;;;;;;;39.47;16.53;100476.16;5497175;32;32386;-87
2022/07/14 09:00:28;;;;;;;5.28;1.35;;;;;;;37.94;17.31;100471.34;5510189;32;34253;-88
2022/07/14 09:03:35;;;;;;;1.42;1.33;;;;;;;39.08;16.39;100467.03;5510381;32;34331;-88
2022/07/14 09:06:59;;;;;;;3.05;1.23;;;;;;;38.94;17.20;100462.97;5523140;32;34343;-86
2022/07/14 09:10:13;;;;;;;1.37;1.00;;;;;;;39.08;16.71;100461.47;5575862;26;34689;-86
2022/07/14 09:13:19;;;;;;;1.25;1.10;;;;;;;39.17;16.04;100458.19;5528583;32;35311;-86
2022/07/14 09:16:23;;;;;;;5.40;1.40;;;;;;;39.24;16.99;100449.66;5528662;32;35357;-86
2022/07/14 09:19:27;;;;;;;1.30;1.10;;;;;;;40.13;16.23;100448.97;5527608;32;35297;-86
2022/07/14 09:22:32;;;;;;;1.20;1.10;;;;;;;40.66;15.27;100446.00;5517661;32;35012;-87
2022/07/14 09:25:35;;;;;;;1.30;1.20;;;;;;;40.80;15.37;100440.72;5501275;32;31877;-89
2022/07/14 09:28:50;;;;;;;4.70;1.10;;;;;;;40.28;15.26;100435.09;5512577;26;33032;31
2022/07/14 09:31:53;;;;;;;1.98;1.00;;;;;;;40.86;14.49;100426.84;5492579;32;33524;-87
2022/07/14 09:35:02;;;;;;;1.85;1.00;;;;;;;41.13;14.58;100432.09;5480915;32;33260;-86
2022/07/14 09:38:19;;;;;;;1.48;1.15;;;;;;;40.68;15.03;100420.72;5481460;32;33555;-87
2022/07/14 09:41:22;;;;;;;1.42;1.27;;;;;;;40.74;15.28;100427.09;5495968;32;33891;-85
2022/07/14 09:44:25;;;;;;;2.12;1.50;;;;;;;40.50;15.26;100428.50;5495307;32;35312;-86
2022/07/14 09:47:28;;;;;;;3.90;1.30;;;;;;;41.56;14.00;100428.91;5481823;32;33672;-86
2022/07/14 09:50:50;;;;;;;4.10;1.25;;;;;;;42.65;13.52;100419.13;5494537;32;34100;-86
2022/07/14 09:53:53;;;;;;;1.35;1.17;;;;;;;42.64;13.38;100421.09;5495916;32;34510;-85
2022/07/14 09:56:56;;;;;;;3.45;1.27;;;;;;;41.18;14.06;100434.84;5495580;32;34844;-85
2022/07/14 10:00:12;;;;;;;3.17;1.17;;;;;;;39.20;15.77;100424.34;5480903;32;32661;-87
2022/07/14 10:03:16;;;;;;;1.87;1.20;;;;;;;39.20;15.90;100422.44;5495920;32;34066;-86
2022/07/14 10:06:20;;;;;;;1.95;1.35;;;;;;;38.60;16.22;100411.44;5494884;32;34787;-86
2022/07/14 10:09:50;;;;;;;1.37;0.80;;;;;;;38.63;15.85;100415.63;5495181;32;33710;-87
2022/07/14 10:12:54;;;;;;;1.77;1.12;;;;;;;39.39;15.43;100408.12;5494196;32;33761;-87
2022/07/14 10:15:58;;;;;;;2.25;1.23;;;;;;;39.77;15.37;100408.03;5502949;32;33752;-87
2022/07/14 10:19:02;;;;;;;3.12;1.80;;;;;;;40.90;14.24;100402.91;5493627;32;34163;-86
2022/07/14 10:22:15;;;;;;;1.73;1.55;;;;;;;39.46;14.87;100411.50;5494049;32;33954;-90
2022/07/14 10:25:18;;;;;;;2.53;1.25;;;;;;;39.70;15.15;100390.78;5494380;32;35296;-90
2022/07/14 10:28:22;;;;;;;1.30;1.20;;;;;;;40.90;14.00;100389.03;5496284;32;34414;-90
2022/07/14 10:31:51;;;;;;;1.05;1.00;;;;;;;41.32;13.80;100392.56;5508908;32;35247;-88
2022/07/14 10:35:03;;;;;;;2.97;1.20;;;;;;;40.82;14.27;100387.66;5498167;32;35296;-87
2022/07/14 10:38:31;;;;;;;5.00;1.40;;;;;;;42.79;12.43;100380.25;5480519;32;32715;-87
2022/07/14 10:41:53;;;;;;;;;;;;;;;44.41;11.65;100377.91;5494429;32;33870;-86
2022/07/14 10:44:57;;;;;;;1.33;1.20;;;;;;;42.52;13.15;100379.63;5494613;32;33997;-86
2022/07/14 10:48:00;;;;;;;1.60;1.50;;;;;;;39.95;15.45;100367.84;5494157;32;33318;-86
2022/07/14 10:51:31;;;;;;;1.60;1.50;;;;;;;39.81;15.03;100361.94;5497170;32;34069;-86
2022/07/14 10:54:34;;;;;;;3.90;1.45;;;;;;;40.32;14.94;100365.97;5492735;32;34600;-85
2022/07/14 10:57:58;;;;;;;2.70;1.65;;;;;;;39.30;15.54;100360.62;5494367;32;33889;-87
2022/07/14 11:01:04;;;;;;;3.25;1.55;;;;;;;38.99;16.05;100365.13;5493505;32;34734;-87
2022/07/14 11:04:07;;;;;;;1.55;1.20;;;;;;;39.04;15.49;100356.88;5492649;32;35003;-89
2022/07/14 11:07:32;;;;;;;3.00;1.30;;;;;;;39.97;14.40;100351.72;5493992;32;34992;-89
2022/07/14 11:10:34;;;;;;;2.42;1.30;;;;;;;38.84;15.34;100338.19;5493824;32;33944;-87
2022/07/14 11:14:01;;;;;;;5.22;1.40;;;;;;;37.96;15.85;100333.53;5522695;26;35125;-84
2022/07/14 11:17:04;;;;;;;2.35;1.35;;;;;;;37.62;16.82;100342.84;5510572;32;34590;-84
2022/07/14 11:20:10;;;;;;;3.17;1.30;;;;;;;37.52;17.10;100328.03;5497090;32;33725;-84
2022/07/14 11:23:15;;;;;;;2.60;1.30;;;;;;;37.89;16.24;100328.22;5511787;32;34116;-85
2022/07/14 11:26:47;;;;;;;2.85;1.40;;;;;;;38.28;16.16;100316.16;5509899;32;34131;-85
2022/07/14 11:29:51;;;;;;;3.67;1.23;;;;;;;38.24;16.10;100316.91;5501773;32;32368;-85
2022/07/14 11:33:12;;;;;;;2.53;1.10;;;;;;;37.59;16.77;100323.16;5515274;32;33667;-84
2022/07/14 11:36:18;;;;;;;29.50;2.70;;;;;;;38.58;14.75;100311.13;5517112;32;34647;-85
2022/07/14 11:39:44;;;;;;;5.70;1.27;;;;;;;38.64;15.27;100311.97;5507921;32;33080;-85
2022/07/14 11:43:27;;;;;;;1.92;1.25;;;;;;;38.28;15.86;100315.28;5507920;32;34115;-85
